sensor_id;sensor_type;location;lat;lon;timestamp;P1;durP1;ratioP1;P2;durP2;ratioP2
74415;SDS011;62850;42.428;25.618;2024-01-27T00:02:17;6.78;;;2.88;;
74415;SDS011;62850;42.428;25.618;2024-01-27T00:04:43;6.32;;;2.83;;
74415;SDS011;62850;42.428;25.618;2024-01-27T00:07:08;4.93;;;2.38;;
74415;SDS011;62850;42.428;25.618;2024-01-27T00:09:33;4.82;;;2.38;;
74415;SDS011;62850;42.428;25.618;2024-01-27T00:11:59;10.30;;;3.33;;
74415;SDS011;62850;42.428;25.618;2024-01-27T00:14:24;5.80;;;2.50;;
74415;SDS011;62850;42.428;25.618;2024-01-27T00:16:50;4.90;;;2.25;;
74415;SDS011;62850;42.428;25.618;2024-01-27T00:19:15;6.18;;;2.30;;
74415;SDS011;62850;42.428;25.618;2024-01-27T00:21:41;6.75;;;2.40;;
74415;SDS011;62850;42.428;25.618;2024-01-27T00:24:06;5.07;;;2.38;;
74415;SDS011;62850;42.428;25.618;2024-01-27T00:26:32;6.45;;;2.47;;
74415;SDS011;62850;42.428;25.618;2024-01-27T00:28:57;4.55;;;2.10;;
74415;SDS011;62850;42.428;25.618;2024-01-27T00:31:23;5.13;;;2.50;;
74415;SDS011;62850;42.428;25.618;2024-01-27T00:33:48;5.57;;;2.45;;
74415;SDS011;62850;42.428;25.618;2024-01-27T00:36:13;5.95;;;1.95;;
74415;SDS011;62850;42.428;25.618;2024-01-27T00:38:39;5.72;;;2.47;;
74415;SDS011;62850;42.428;25.618;2024-01-27T00:41:04;6.60;;;2.78;;
74415;SDS011;62850;42.428;25.618;2024-01-27T00:43:30;6.32;;;2.30;;
74415;SDS011;62850;42.428;25.618;2024-01-27T00:45:56;8.70;;;2.78;;
74415;SDS011;62850;42.428;25.618;2024-01-27T00:48:22;7.00;;;2.75;;
74415;SDS011;62850;42.428;25.618;2024-01-27T00:50:47;7.32;;;2.85;;
74415;SDS011;62850;42.428;25.618;2024-01-27T00:53:13;7.80;;;3.10;;
74415;SDS011;62850;42.428;25.618;2024-01-27T00:55:38;5.20;;;2.70;;
74415;SDS011;62850;42.428;25.618;2024-01-27T00:58:04;6.68;;;2.45;;
74415;SDS011;62850;42.428;25.618;2024-01-27T01:00:30;6.15;;;2.70;;
74415;SDS011;62850;42.428;25.618;2024-01-27T01:02:55;7.25;;;2.90;;
74415;SDS011;62850;42.428;25.618;2024-01-27T01:05:20;8.93;;;2.70;;
74415;SDS011;62850;42.428;25.618;2024-01-27T01:07:46;7.15;;;2.72;;
74415;SDS011;62850;42.428;25.618;2024-01-27T01:10:11;7.32;;;2.70;;
74415;SDS011;62850;42.428;25.618;2024-01-27T01:12:37;5.72;;;2.80;;
74415;SDS011;62850;42.428;25.618;2024-01-27T01:15:02;6.90;;;3.60;;
74415;SDS011;62850;42.428;25.618;2024-01-27T01:17:28;7.10;;;3.78;;
74415;SDS011;62850;42.428;25.618;2024-01-27T01:19:54;7.28;;;3.30;;
74415;SDS011;62850;42.428;25.618;2024-01-27T01:22:20;6.97;;;3.67;;
74415;SDS011;62850;42.428;25.618;2024-01-27T01:24:45;5.82;;;3.00;;
74415;SDS011;62850;42.428;25.618;2024-01-27T01:27:11;6.57;;;2.83;;
74415;SDS011;62850;42.428;25.618;2024-01-27T01:29:36;5.18;;;3.00;;
74415;SDS011;62850;42.428;25.618;2024-01-27T01:32:01;6.03;;;2.92;;
74415;SDS011;62850;42.428;25.618;2024-01-27T01:34:28;7.40;;;2.88;;
74415;SDS011;62850;42.428;25.618;2024-01-27T01:36:53;7.22;;;2.80;;
74415;SDS011;62850;42.428;25.618;2024-01-27T01:39:19;7.80;;;3.08;;
74415;SDS011;62850;42.428;25.618;2024-01-27T01:41:44;5.55;;;2.85;;
74415;SDS011;62850;42.428;25.618;2024-01-27T01:44:10;5.60;;;2.70;;
74415;SDS011;62850;42.428;25.618;2024-01-27T01:46:35;4.72;;;2.50;;
74415;SDS011;62850;42.428;25.618;2024-01-27T01:49:01;5.93;;;3.20;;
74415;SDS011;62850;42.428;25.618;2024-01-27T01:51:27;6.00;;;2.53;;
74415;SDS011;62850;42.428;25.618;2024-01-27T01:53:54;9.23;;;3.00;;
74415;SDS011;62850;42.428;25.618;2024-01-27T01:56:23;6.53;;;2.92;;
74415;SDS011;62850;42.428;25.618;2024-01-27T01:58:49;5.80;;;2.40;;
74415;SDS011;62850;42.428;25.618;2024-01-27T02:01:16;6.18;;;2.60;;
74415;SDS011;62850;42.428;25.618;2024-01-27T02:03:56;5.72;;;2.30;;
74415;SDS011;62850;42.428;25.618;2024-01-27T02:06:22;5.40;;;2.38;;
74415;SDS011;62850;42.428;25.618;2024-01-27T02:08:47;4.28;;;2.03;;
74415;SDS011;62850;42.428;25.618;2024-01-27T02:11:13;4.20;;;1.88;;
74415;SDS011;62850;42.428;25.618;2024-01-27T02:13:39;5.57;;;2.47;;
74415;SDS011;62850;42.428;25.618;2024-01-27T02:16:05;4.57;;;2.17;;
74415;SDS011;62850;42.428;25.618;2024-01-27T02:18:30;4.35;;;2.47;;
74415;SDS011;62850;42.428;25.618;2024-01-27T02:20:56;5.32;;;2.05;;
74415;SDS011;62850;42.428;25.618;2024-01-27T02:23:21;6.90;;;2.65;;
74415;SDS011;62850;42.428;25.618;2024-01-27T02:25:47;6.95;;;2.42;;
74415;SDS011;62850;42.428;25.618;2024-01-27T02:28:12;7.20;;;3.05;;
74415;SDS011;62850;42.428;25.618;2024-01-27T02:30:38;5.97;;;2.33;;
74415;SDS011;62850;42.428;25.618;2024-01-27T02:33:04;5.60;;;2.75;;
74415;SDS011;62850;42.428;25.618;2024-01-27T02:35:30;5.38;;;3.00;;
74415;SDS011;62850;42.428;25.618;2024-01-27T02:37:55;5.57;;;3.13;;
74415;SDS011;62850;42.428;25.618;2024-01-27T02:40:21;7.03;;;2.60;;
74415;SDS011;62850;42.428;25.618;2024-01-27T02:42:46;6.72;;;2.97;;
74415;SDS011;62850;42.428;25.618;2024-01-27T02:45:12;5.88;;;2.72;;
74415;SDS011;62850;42.428;25.618;2024-01-27T02:47:37;5.78;;;2.60;;
74415;SDS011;62850;42.428;25.618;2024-01-27T02:50:03;6.47;;;2.70;;
74415;SDS011;62850;42.428;25.618;2024-01-27T02:52:31;7.35;;;2.80;;
74415;SDS011;62850;42.428;25.618;2024-01-27T02:54:56;5.82;;;2.30;;
74415;SDS011;62850;42.428;25.618;2024-01-27T02:57:22;6.63;;;2.80;;
74415;SDS011;62850;42.428;25.618;2024-01-27T02:59:47;5.82;;;2.60;;
74415;SDS011;62850;42.428;25.618;2024-01-27T03:02:13;4.82;;;2.20;;
74415;SDS011;62850;42.428;25.618;2024-01-27T03:04:38;6.38;;;2.83;;
74415;SDS011;62850;42.428;25.618;2024-01-27T03:07:04;7.03;;;2.50;;
74415;SDS011;62850;42.428;25.618;2024-01-27T03:09:30;5.18;;;2.00;;
74415;SDS011;62850;42.428;25.618;2024-01-27T03:11:56;9.57;;;3.72;;
74415;SDS011;62850;42.428;25.618;2024-01-27T03:14:21;9.45;;;2.95;;
74415;SDS011;62850;42.428;25.618;2024-01-27T03:16:47;9.07;;;3.17;;
74415;SDS011;62850;42.428;25.618;2024-01-27T03:19:12;5.85;;;2.40;;
74415;SDS011;62850;42.428;25.618;2024-01-27T03:21:38;7.25;;;2.92;;
74415;SDS011;62850;42.428;25.618;2024-01-27T03:24:03;8.45;;;3.00;;
74415;SDS011;62850;42.428;25.618;2024-01-27T03:26:29;6.47;;;2.65;;
74415;SDS011;62850;42.428;25.618;2024-01-27T03:28:54;6.00;;;1.92;;
74415;SDS011;62850;42.428;25.618;2024-01-27T03:31:20;6.10;;;2.15;;
74415;SDS011;62850;42.428;25.618;2024-01-27T03:33:45;5.57;;;2.65;;
74415;SDS011;62850;42.428;25.618;2024-01-27T03:36:11;5.43;;;2.10;;
74415;SDS011;62850;42.428;25.618;2024-01-27T03:38:37;4.13;;;2.08;;
74415;SDS011;62850;42.428;25.618;2024-01-27T03:41:04;6.43;;;2.05;;
74415;SDS011;62850;42.428;25.618;2024-01-27T03:43:30;4.55;;;2.30;;
74415;SDS011;62850;42.428;25.618;2024-01-27T03:45:59;6.80;;;2.60;;
74415;SDS011;62850;42.428;25.618;2024-01-27T03:48:24;6.20;;;3.03;;
74415;SDS011;62850;42.428;25.618;2024-01-27T03:50:50;7.50;;;3.28;;
74415;SDS011;62850;42.428;25.618;2024-01-27T03:53:15;6.10;;;2.88;;
74415;SDS011;62850;42.428;25.618;2024-01-27T03:55:41;9.00;;;3.47;;
74415;SDS011;62850;42.428;25.618;2024-01-27T03:58:06;6.28;;;2.70;;
74415;SDS011;62850;42.428;25.618;2024-01-27T04:00:32;8.15;;;3.25;;
74415;SDS011;62850;42.428;25.618;2024-01-27T04:03:01;9.18;;;3.67;;
74415;SDS011;62850;42.428;25.618;2024-01-27T04:05:27;7.72;;;3.20;;
74415;SDS011;62850;42.428;25.618;2024-01-27T04:07:54;8.90;;;3.38;;
74415;SDS011;62850;42.428;25.618;2024-01-27T04:10:20;7.10;;;3.25;;
74415;SDS011;62850;42.428;25.618;2024-01-27T04:12:45;8.43;;;3.38;;
74415;SDS011;62850;42.428;25.618;2024-01-27T04:15:11;6.95;;;2.90;;
74415;SDS011;62850;42.428;25.618;2024-01-27T04:17:37;8.20;;;3.45;;
74415;SDS011;62850;42.428;25.618;2024-01-27T04:20:03;7.25;;;3.72;;
74415;SDS011;62850;42.428;25.618;2024-01-27T04:22:29;8.15;;;3.33;;
74415;SDS011;62850;42.428;25.618;2024-01-27T04:24:55;6.70;;;3.25;;
74415;SDS011;62850;42.428;25.618;2024-01-27T04:27:21;8.95;;;3.35;;
74415;SDS011;62850;42.428;25.618;2024-01-27T04:29:47;7.47;;;3.28;;
74415;SDS011;62850;42.428;25.618;2024-01-27T04:32:13;8.98;;;3.30;;
74415;SDS011;62850;42.428;25.618;2024-01-27T04:34:38;6.07;;;3.05;;
74415;SDS011;62850;42.428;25.618;2024-01-27T04:37:04;7.45;;;3.58;;
74415;SDS011;62850;42.428;25.618;2024-01-27T04:39:29;10.35;;;3.67;;
74415;SDS011;62850;42.428;25.618;2024-01-27T04:41:55;7.00;;;3.90;;
74415;SDS011;62850;42.428;25.618;2024-01-27T04:44:20;8.60;;;3.53;;
74415;SDS011;62850;42.428;25.618;2024-01-27T04:46:46;7.75;;;3.63;;
74415;SDS011;62850;42.428;25.618;2024-01-27T04:49:11;9.63;;;4.70;;
74415;SDS011;62850;42.428;25.618;2024-01-27T04:51:36;6.93;;;3.75;;
74415;SDS011;62850;42.428;25.618;2024-01-27T04:54:02;9.15;;;4.28;;
74415;SDS011;62850;42.428;25.618;2024-01-27T04:56:27;6.80;;;4.05;;
74415;SDS011;62850;42.428;25.618;2024-01-27T04:58:53;7.05;;;3.38;;
74415;SDS011;62850;42.428;25.618;2024-01-27T05:01:18;10.23;;;4.10;;
74415;SDS011;62850;42.428;25.618;2024-01-27T05:03:44;9.50;;;5.28;;
74415;SDS011;62850;42.428;25.618;2024-01-27T05:06:09;16.08;;;6.68;;
74415;SDS011;62850;42.428;25.618;2024-01-27T05:08:35;11.32;;;6.25;;
74415;SDS011;62850;42.428;25.618;2024-01-27T05:11:01;14.27;;;5.70;;
74415;SDS011;62850;42.428;25.618;2024-01-27T05:13:26;11.13;;;5.43;;
74415;SDS011;62850;42.428;25.618;2024-01-27T05:15:52;8.38;;;5.28;;
74415;SDS011;62850;42.428;25.618;2024-01-27T05:18:17;11.25;;;5.80;;
74415;SDS011;62850;42.428;25.618;2024-01-27T05:20:42;8.70;;;5.20;;
74415;SDS011;62850;42.428;25.618;2024-01-27T05:23:08;8.93;;;4.75;;
74415;SDS011;62850;42.428;25.618;2024-01-27T05:25:33;11.35;;;4.97;;
74415;SDS011;62850;42.428;25.618;2024-01-27T05:27:59;8.05;;;4.47;;
74415;SDS011;62850;42.428;25.618;2024-01-27T05:30:24;7.03;;;4.07;;
74415;SDS011;62850;42.428;25.618;2024-01-27T05:32:50;9.25;;;3.90;;
74415;SDS011;62850;42.428;25.618;2024-01-27T05:35:15;8.55;;;3.92;;
74415;SDS011;62850;42.428;25.618;2024-01-27T05:37:41;8.63;;;3.80;;
74415;SDS011;62850;42.428;25.618;2024-01-27T05:40:06;11.43;;;5.13;;
74415;SDS011;62850;42.428;25.618;2024-01-27T05:42:33;11.45;;;5.43;;
74415;SDS011;62850;42.428;25.618;2024-01-27T05:44:58;12.70;;;5.43;;
74415;SDS011;62850;42.428;25.618;2024-01-27T05:47:24;13.68;;;5.43;;
74415;SDS011;62850;42.428;25.618;2024-01-27T05:49:49;12.60;;;5.45;;
74415;SDS011;62850;42.428;25.618;2024-01-27T05:52:15;10.18;;;4.70;;
74415;SDS011;62850;42.428;25.618;2024-01-27T05:54:40;9.45;;;4.60;;
74415;SDS011;62850;42.428;25.618;2024-01-27T05:57:09;10.23;;;4.10;;
74415;SDS011;62850;42.428;25.618;2024-01-27T05:59:34;6.75;;;3.00;;
74415;SDS011;62850;42.428;25.618;2024-01-27T06:02:00;9.55;;;4.03;;
74415;SDS011;62850;42.428;25.618;2024-01-27T06:04:26;12.38;;;4.55;;
74415;SDS011;62850;42.428;25.618;2024-01-27T06:06:52;21.88;;;7.47;;
74415;SDS011;62850;42.428;25.618;2024-01-27T06:09:17;19.45;;;6.55;;
74415;SDS011;62850;42.428;25.618;2024-01-27T06:11:43;21.50;;;7.40;;
74415;SDS011;62850;42.428;25.618;2024-01-27T06:14:08;16.80;;;7.35;;
74415;SDS011;62850;42.428;25.618;2024-01-27T06:16:34;18.45;;;7.00;;
74415;SDS011;62850;42.428;25.618;2024-01-27T06:19:00;14.63;;;6.50;;
74415;SDS011;62850;42.428;25.618;2024-01-27T06:21:26;15.02;;;6.90;;
74415;SDS011;62850;42.428;25.618;2024-01-27T06:23:51;17.75;;;6.45;;
74415;SDS011;62850;42.428;25.618;2024-01-27T06:26:17;25.13;;;10.10;;
74415;SDS011;62850;42.428;25.618;2024-01-27T06:28:43;20.45;;;9.13;;
74415;SDS011;62850;42.428;25.618;2024-01-27T06:31:08;26.83;;;8.82;;
74415;SDS011;62850;42.428;25.618;2024-01-27T06:33:37;23.55;;;8.80;;
74415;SDS011;62850;42.428;25.618;2024-01-27T06:36:02;17.90;;;7.95;;
74415;SDS011;62850;42.428;25.618;2024-01-27T06:38:28;21.98;;;8.88;;
74415;SDS011;62850;42.428;25.618;2024-01-27T06:40:53;21.90;;;8.40;;
74415;SDS011;62850;42.428;25.618;2024-01-27T06:43:20;17.88;;;8.75;;
74415;SDS011;62850;42.428;25.618;2024-01-27T06:45:45;20.23;;;8.93;;
74415;SDS011;62850;42.428;25.618;2024-01-27T06:48:11;20.27;;;9.02;;
74415;SDS011;62850;42.428;25.618;2024-01-27T06:50:36;18.35;;;8.70;;
74415;SDS011;62850;42.428;25.618;2024-01-27T06:53:02;19.65;;;8.90;;
74415;SDS011;62850;42.428;25.618;2024-01-27T06:55:27;20.02;;;9.13;;
74415;SDS011;62850;42.428;25.618;2024-01-27T06:57:53;11.48;;;4.53;;
74415;SDS011;62850;42.428;25.618;2024-01-27T07:00:19;9.55;;;4.13;;
74415;SDS011;62850;42.428;25.618;2024-01-27T07:02:45;10.68;;;4.07;;
74415;SDS011;62850;42.428;25.618;2024-01-27T07:05:10;8.60;;;3.78;;
74415;SDS011;62850;42.428;25.618;2024-01-27T07:07:37;6.88;;;3.42;;
74415;SDS011;62850;42.428;25.618;2024-01-27T07:10:03;9.40;;;3.72;;
74415;SDS011;62850;42.428;25.618;2024-01-27T07:12:28;7.45;;;3.33;;
74415;SDS011;62850;42.428;25.618;2024-01-27T07:14:54;7.10;;;3.22;;
74415;SDS011;62850;42.428;25.618;2024-01-27T07:17:24;10.70;;;4.95;;
74415;SDS011;62850;42.428;25.618;2024-01-27T07:19:51;14.45;;;7.13;;
74415;SDS011;62850;42.428;25.618;2024-01-27T07:22:16;18.08;;;8.15;;
74415;SDS011;62850;42.428;25.618;2024-01-27T07:24:42;17.73;;;10.32;;
74415;SDS011;62850;42.428;25.618;2024-01-27T07:27:07;27.08;;;12.35;;
74415;SDS011;62850;42.428;25.618;2024-01-27T07:29:36;27.80;;;12.73;;
74415;SDS011;62850;42.428;25.618;2024-01-27T07:32:02;24.77;;;12.85;;
74415;SDS011;62850;42.428;25.618;2024-01-27T07:34:28;22.73;;;12.48;;
74415;SDS011;62850;42.428;25.618;2024-01-27T07:36:53;33.63;;;14.25;;
74415;SDS011;62850;42.428;25.618;2024-01-27T07:39:18;57.13;;;18.10;;
74415;SDS011;62850;42.428;25.618;2024-01-27T07:41:44;42.20;;;16.77;;
74415;SDS011;62850;42.428;25.618;2024-01-27T07:44:10;37.55;;;15.30;;
74415;SDS011;62850;42.428;25.618;2024-01-27T07:46:39;34.03;;;15.68;;
74415;SDS011;62850;42.428;25.618;2024-01-27T07:49:06;29.42;;;16.42;;
74415;SDS011;62850;42.428;25.618;2024-01-27T07:51:32;32.00;;;16.27;;
74415;SDS011;62850;42.428;25.618;2024-01-27T07:53:58;34.90;;;17.92;;
74415;SDS011;62850;42.428;25.618;2024-01-27T07:56:24;27.75;;;15.52;;
74415;SDS011;62850;42.428;25.618;2024-01-27T07:58:49;32.50;;;15.95;;
74415;SDS011;62850;42.428;25.618;2024-01-27T08:01:15;28.45;;;14.77;;
74415;SDS011;62850;42.428;25.618;2024-01-27T08:03:41;31.85;;;15.93;;
74415;SDS011;62850;42.428;25.618;2024-01-27T08:06:07;38.13;;;18.20;;
74415;SDS011;62850;42.428;25.618;2024-01-27T08:08:36;34.70;;;17.52;;
74415;SDS011;62850;42.428;25.618;2024-01-27T08:11:01;38.95;;;17.75;;
74415;SDS011;62850;42.428;25.618;2024-01-27T08:13:27;33.42;;;18.45;;
74415;SDS011;62850;42.428;25.618;2024-01-27T08:15:52;30.48;;;16.92;;
74415;SDS011;62850;42.428;25.618;2024-01-27T08:18:18;33.08;;;17.98;;
74415;SDS011;62850;42.428;25.618;2024-01-27T08:20:44;28.85;;;16.42;;
74415;SDS011;62850;42.428;25.618;2024-01-27T08:23:09;24.85;;;12.00;;
74415;SDS011;62850;42.428;25.618;2024-01-27T08:25:35;23.33;;;9.90;;
74415;SDS011;62850;42.428;25.618;2024-01-27T08:28:01;21.27;;;9.38;;
74415;SDS011;62850;42.428;25.618;2024-01-27T08:30:26;16.05;;;8.65;;
74415;SDS011;62850;42.428;25.618;2024-01-27T08:32:52;12.18;;;6.88;;
74415;SDS011;62850;42.428;25.618;2024-01-27T08:35:17;15.98;;;7.53;;
74415;SDS011;62850;42.428;25.618;2024-01-27T08:37:43;15.25;;;7.80;;
74415;SDS011;62850;42.428;25.618;2024-01-27T08:40:08;20.92;;;9.88;;
74415;SDS011;62850;42.428;25.618;2024-01-27T08:42:34;16.70;;;8.93;;
74415;SDS011;62850;42.428;25.618;2024-01-27T08:44:59;16.92;;;9.20;;
74415;SDS011;62850;42.428;25.618;2024-01-27T08:47:25;18.10;;;7.43;;
74415;SDS011;62850;42.428;25.618;2024-01-27T08:49:50;14.18;;;6.60;;
74415;SDS011;62850;42.428;25.618;2024-01-27T08:52:16;13.93;;;8.10;;
74415;SDS011;62850;42.428;25.618;2024-01-27T08:54:41;11.80;;;7.40;;
74415;SDS011;62850;42.428;25.618;2024-01-27T08:57:07;12.88;;;7.07;;
74415;SDS011;62850;42.428;25.618;2024-01-27T08:59:32;12.63;;;6.43;;
74415;SDS011;62850;42.428;25.618;2024-01-27T09:01:58;21.08;;;7.50;;
74415;SDS011;62850;42.428;25.618;2024-01-27T09:04:23;16.42;;;6.15;;
74415;SDS011;62850;42.428;25.618;2024-01-27T09:06:49;15.40;;;7.65;;
74415;SDS011;62850;42.428;25.618;2024-01-27T09:09:14;12.73;;;7.45;;
74415;SDS011;62850;42.428;25.618;2024-01-27T09:11:39;14.30;;;7.80;;
74415;SDS011;62850;42.428;25.618;2024-01-27T09:14:05;12.75;;;7.55;;
74415;SDS011;62850;42.428;25.618;2024-01-27T09:16:32;15.70;;;8.30;;
74415;SDS011;62850;42.428;25.618;2024-01-27T09:18:57;18.70;;;8.40;;
74415;SDS011;62850;42.428;25.618;2024-01-27T09:21:23;18.08;;;9.30;;
74415;SDS011;62850;42.428;25.618;2024-01-27T09:23:53;16.70;;;10.23;;
74415;SDS011;62850;42.428;25.618;2024-01-27T09:26:19;10.80;;;5.90;;
74415;SDS011;62850;42.428;25.618;2024-01-27T09:28:45;10.07;;;5.38;;
74415;SDS011;62850;42.428;25.618;2024-01-27T09:31:19;9.68;;;4.30;;
74415;SDS011;62850;42.428;25.618;2024-01-27T09:33:46;9.10;;;3.33;;
74415;SDS011;62850;42.428;25.618;2024-01-27T09:36:13;5.72;;;3.28;;
74415;SDS011;62850;42.428;25.618;2024-01-27T09:38:38;6.88;;;2.97;;
74415;SDS011;62850;42.428;25.618;2024-01-27T09:41:04;7.50;;;3.40;;
74415;SDS011;62850;42.428;25.618;2024-01-27T09:43:29;7.20;;;3.72;;
74415;SDS011;62850;42.428;25.618;2024-01-27T09:45:55;6.47;;;3.10;;
74415;SDS011;62850;42.428;25.618;2024-01-27T09:48:20;15.73;;;6.80;;
74415;SDS011;62850;42.428;25.618;2024-01-27T09:50:46;11.60;;;4.53;;
74415;SDS011;62850;42.428;25.618;2024-01-27T09:53:13;7.38;;;3.00;;
74415;SDS011;62850;42.428;25.618;2024-01-27T09:55:39;19.55;;;9.60;;
74415;SDS011;62850;42.428;25.618;2024-01-27T09:58:04;14.68;;;5.75;;
74415;SDS011;62850;42.428;25.618;2024-01-27T10:00:30;20.58;;;9.95;;
74415;SDS011;62850;42.428;25.618;2024-01-27T10:02:56;38.22;;;11.32;;
74415;SDS011;62850;42.428;25.618;2024-01-27T10:05:23;22.55;;;11.88;;
74415;SDS011;62850;42.428;25.618;2024-01-27T10:07:50;28.38;;;9.48;;
74415;SDS011;62850;42.428;25.618;2024-01-27T10:10:16;18.77;;;9.05;;
74415;SDS011;62850;42.428;25.618;2024-01-27T10:12:41;21.63;;;10.13;;
74415;SDS011;62850;42.428;25.618;2024-01-27T10:15:17;41.47;;;9.60;;
74415;SDS011;62850;42.428;25.618;2024-01-27T10:17:46;19.48;;;9.40;;
74415;SDS011;62850;42.428;25.618;2024-01-27T10:20:11;17.38;;;9.25;;
74415;SDS011;62850;42.428;25.618;2024-01-27T10:22:41;15.02;;;7.80;;
74415;SDS011;62850;42.428;25.618;2024-01-27T10:25:07;16.05;;;7.57;;
74415;SDS011;62850;42.428;25.618;2024-01-27T10:27:33;16.48;;;8.57;;
74415;SDS011;62850;42.428;25.618;2024-01-27T10:29:59;14.77;;;7.22;;
74415;SDS011;62850;42.428;25.618;2024-01-27T10:32:24;14.45;;;7.55;;
74415;SDS011;62850;42.428;25.618;2024-01-27T10:35:01;15.75;;;7.88;;
74415;SDS011;62850;42.428;25.618;2024-01-27T10:37:35;45.08;;;9.05;;
74415;SDS011;62850;42.428;25.618;2024-01-27T10:40:05;19.70;;;6.28;;
74415;SDS011;62850;42.428;25.618;2024-01-27T10:42:34;10.90;;;6.82;;
74415;SDS011;62850;42.428;25.618;2024-01-27T10:45:01;16.55;;;7.13;;
74415;SDS011;62850;42.428;25.618;2024-01-27T10:47:27;18.08;;;8.55;;
74415;SDS011;62850;42.428;25.618;2024-01-27T10:50:00;20.80;;;8.80;;
74415;SDS011;62850;42.428;25.618;2024-01-27T10:52:31;15.50;;;7.53;;
74415;SDS011;62850;42.428;25.618;2024-01-27T10:55:03;20.33;;;9.45;;
74415;SDS011;62850;42.428;25.618;2024-01-27T10:57:34;21.75;;;9.77;;
74415;SDS011;62850;42.428;25.618;2024-01-27T11:00:02;20.60;;;9.82;;
74415;SDS011;62850;42.428;25.618;2024-01-27T11:02:32;21.20;;;11.23;;
74415;SDS011;62850;42.428;25.618;2024-01-27T11:05:00;16.90;;;9.10;;
74415;SDS011;62850;42.428;25.618;2024-01-27T11:07:27;23.30;;;11.35;;
74415;SDS011;62850;42.428;25.618;2024-01-27T11:09:53;21.85;;;12.57;;
74415;SDS011;62850;42.428;25.618;2024-01-27T11:12:19;18.70;;;10.73;;
74415;SDS011;62850;42.428;25.618;2024-01-27T11:14:46;24.17;;;11.23;;
74415;SDS011;62850;42.428;25.618;2024-01-27T11:17:13;23.17;;;10.27;;
74415;SDS011;62850;42.428;25.618;2024-01-27T11:19:39;19.63;;;8.40;;
74415;SDS011;62850;42.428;25.618;2024-01-27T11:22:05;15.07;;;8.65;;
74415;SDS011;62850;42.428;25.618;2024-01-27T11:24:31;17.77;;;7.57;;
74415;SDS011;62850;42.428;25.618;2024-01-27T11:27:00;15.77;;;7.95;;
74415;SDS011;62850;42.428;25.618;2024-01-27T11:29:26;14.00;;;7.40;;
74415;SDS011;62850;42.428;25.618;2024-01-27T11:31:54;15.48;;;7.28;;
74415;SDS011;62850;42.428;25.618;2024-01-27T11:34:19;15.05;;;8.30;;
74415;SDS011;62850;42.428;25.618;2024-01-27T11:36:45;19.92;;;8.70;;
74415;SDS011;62850;42.428;25.618;2024-01-27T11:39:29;18.33;;;8.07;;
74415;SDS011;62850;42.428;25.618;2024-01-27T11:42:07;19.17;;;8.98;;
74415;SDS011;62850;42.428;25.618;2024-01-27T11:44:34;21.50;;;9.50;;
74415;SDS011;62850;42.428;25.618;2024-01-27T11:47:00;17.13;;;8.25;;
74415;SDS011;62850;42.428;25.618;2024-01-27T11:49:26;15.57;;;8.70;;
74415;SDS011;62850;42.428;25.618;2024-01-27T11:51:52;17.25;;;8.73;;
74415;SDS011;62850;42.428;25.618;2024-01-27T11:54:17;17.58;;;9.27;;
74415;SDS011;62850;42.428;25.618;2024-01-27T11:56:43;21.45;;;9.75;;
74415;SDS011;62850;42.428;25.618;2024-01-27T11:59:09;19.58;;;9.45;;
74415;SDS011;62850;42.428;25.618;2024-01-27T12:01:35;19.85;;;10.38;;
74415;SDS011;62850;42.428;25.618;2024-01-27T12:04:02;26.67;;;10.30;;
74415;SDS011;62850;42.428;25.618;2024-01-27T12:06:28;17.15;;;9.73;;
74415;SDS011;62850;42.428;25.618;2024-01-27T12:08:55;19.05;;;10.73;;
74415;SDS011;62850;42.428;25.618;2024-01-27T12:11:22;20.25;;;9.30;;
74415;SDS011;62850;42.428;25.618;2024-01-27T12:13:49;20.60;;;8.90;;
74415;SDS011;62850;42.428;25.618;2024-01-27T12:16:14;18.40;;;8.85;;
74415;SDS011;62850;42.428;25.618;2024-01-27T12:18:41;20.40;;;9.40;;
74415;SDS011;62850;42.428;25.618;2024-01-27T12:21:06;20.70;;;10.18;;
74415;SDS011;62850;42.428;25.618;2024-01-27T12:23:32;24.63;;;11.13;;
74415;SDS011;62850;42.428;25.618;2024-01-27T12:25:57;22.75;;;11.57;;
74415;SDS011;62850;42.428;25.618;2024-01-27T12:28:23;13.27;;;6.68;;
74415;SDS011;62850;42.428;25.618;2024-01-27T12:30:49;15.07;;;7.18;;
74415;SDS011;62850;42.428;25.618;2024-01-27T12:33:16;24.45;;;11.98;;
74415;SDS011;62850;42.428;25.618;2024-01-27T12:35:45;17.48;;;9.15;;
74415;SDS011;62850;42.428;25.618;2024-01-27T12:38:11;13.05;;;6.80;;
74415;SDS011;62850;42.428;25.618;2024-01-27T12:40:37;5.65;;;2.83;;
74415;SDS011;62850;42.428;25.618;2024-01-27T12:43:03;6.00;;;3.20;;
74415;SDS011;62850;42.428;25.618;2024-01-27T12:45:29;4.63;;;1.95;;
74415;SDS011;62850;42.428;25.618;2024-01-27T12:47:54;2.20;;;1.10;;
74415;SDS011;62850;42.428;25.618;2024-01-27T12:50:20;3.00;;;1.15;;
74415;SDS011;62850;42.428;25.618;2024-01-27T12:52:46;2.92;;;1.30;;
74415;SDS011;62850;42.428;25.618;2024-01-27T12:55:12;3.22;;;1.23;;
74415;SDS011;62850;42.428;25.618;2024-01-27T12:57:38;4.55;;;1.90;;
74415;SDS011;62850;42.428;25.618;2024-01-27T13:00:05;7.18;;;1.83;;
74415;SDS011;62850;42.428;25.618;2024-01-27T13:02:35;4.70;;;1.40;;
74415;SDS011;62850;42.428;25.618;2024-01-27T13:05:04;6.55;;;1.40;;
74415;SDS011;62850;42.428;25.618;2024-01-27T13:07:30;4.25;;;1.20;;
74415;SDS011;62850;42.428;25.618;2024-01-27T13:09:56;2.28;;;1.05;;
74415;SDS011;62850;42.428;25.618;2024-01-27T13:12:21;2.10;;;1.00;;
74415;SDS011;62850;42.428;25.618;2024-01-27T13:14:47;4.68;;;1.50;;
74415;SDS011;62850;42.428;25.618;2024-01-27T13:17:13;8.43;;;4.30;;
74415;SDS011;62850;42.428;25.618;2024-01-27T13:19:39;4.80;;;2.38;;
74415;SDS011;62850;42.428;25.618;2024-01-27T13:22:05;12.43;;;7.97;;
74415;SDS011;62850;42.428;25.618;2024-01-27T13:24:32;10.80;;;5.90;;
74415;SDS011;62850;42.428;25.618;2024-01-27T13:26:57;9.52;;;5.75;;
74415;SDS011;62850;42.428;25.618;2024-01-27T13:29:23;3.60;;;1.98;;
74415;SDS011;62850;42.428;25.618;2024-01-27T13:31:49;4.22;;;1.90;;
74415;SDS011;62850;42.428;25.618;2024-01-27T13:34:15;5.78;;;2.20;;
74415;SDS011;62850;42.428;25.618;2024-01-27T13:36:40;4.32;;;1.98;;
74415;SDS011;62850;42.428;25.618;2024-01-27T13:39:06;5.35;;;3.03;;
74415;SDS011;62850;42.428;25.618;2024-01-27T13:41:31;5.63;;;2.60;;
74415;SDS011;62850;42.428;25.618;2024-01-27T13:43:57;4.75;;;1.80;;
74415;SDS011;62850;42.428;25.618;2024-01-27T13:46:22;4.22;;;2.13;;
74415;SDS011;62850;42.428;25.618;2024-01-27T13:48:48;3.33;;;1.73;;
74415;SDS011;62850;42.428;25.618;2024-01-27T13:51:14;5.97;;;2.47;;
74415;SDS011;62850;42.428;25.618;2024-01-27T13:53:40;5.00;;;2.67;;
74415;SDS011;62850;42.428;25.618;2024-01-27T13:56:05;4.88;;;1.92;;
74415;SDS011;62850;42.428;25.618;2024-01-27T13:58:31;6.95;;;2.15;;
74415;SDS011;62850;42.428;25.618;2024-01-27T14:00:57;5.47;;;2.47;;
74415;SDS011;62850;42.428;25.618;2024-01-27T14:03:23;5.80;;;3.28;;
74415;SDS011;62850;42.428;25.618;2024-01-27T14:05:48;5.75;;;2.40;;
74415;SDS011;62850;42.428;25.618;2024-01-27T14:08:14;5.13;;;3.00;;
74415;SDS011;62850;42.428;25.618;2024-01-27T14:10:40;4.35;;;2.22;;
74415;SDS011;62850;42.428;25.618;2024-01-27T14:13:08;4.35;;;2.30;;
74415;SDS011;62850;42.428;25.618;2024-01-27T14:15:37;4.70;;;2.38;;
74415;SDS011;62850;42.428;25.618;2024-01-27T14:18:03;6.07;;;2.63;;
74415;SDS011;62850;42.428;25.618;2024-01-27T14:20:32;6.63;;;2.90;;